sensor_id;sensor_type;location;lat;lon;timestamp;P1;durP1;ratioP1;P2;durP2;ratioP2
1685;SDS011;840;47.980;7.830;2023-09-12T00:00:06;6.60;;;6.00;;
1685;SDS011;840;47.980;7.830;2023-09-12T00:02:35;7.47;;;6.70;;
1685;SDS011;840;47.980;7.830;2023-09-12T00:05:02;9.03;;;6.83;;
1685;SDS011;840;47.980;7.830;2023-09-12T00:07:29;7.80;;;7.10;;
1685;SDS011;840;47.980;7.830;2023-09-12T00:09:56;7.70;;;7.00;;
1685;SDS011;840;47.980;7.830;2023-09-12T00:12:23;7.13;;;6.43;;
1685;SDS011;840;47.980;7.830;2023-09-12T00:14:50;7.47;;;6.83;;
1685;SDS011;840;47.980;7.830;2023-09-12T00:17:17;7.73;;;7.10;;
1685;SDS011;840;47.980;7.830;2023-09-12T00:19:45;8.87;;;8.07;;
1685;SDS011;840;47.980;7.830;2023-09-12T00:22:12;8.53;;;7.73;;
1685;SDS011;840;47.980;7.830;2023-09-12T00:24:39;7.13;;;6.57;;
1685;SDS011;840;47.980;7.830;2023-09-12T00:27:05;8.17;;;7.43;;
1685;SDS011;840;47.980;7.830;2023-09-12T00:29:32;7.93;;;7.20;;
1685;SDS011;840;47.980;7.830;2023-09-12T00:31:59;8.13;;;7.20;;
1685;SDS011;840;47.980;7.830;2023-09-12T00:34:25;7.10;;;6.50;;
1685;SDS011;840;47.980;7.830;2023-09-12T00:36:53;7.30;;;6.60;;
1685;SDS011;840;47.980;7.830;2023-09-12T00:39:20;7.50;;;6.67;;
1685;SDS011;840;47.980;7.830;2023-09-12T00:41:47;9.27;;;6.83;;
1685;SDS011;840;47.980;7.830;2023-09-12T00:44:14;7.67;;;6.90;;
1685;SDS011;840;47.980;7.830;2023-09-12T00:46:40;6.30;;;5.80;;
1685;SDS011;840;47.980;7.830;2023-09-12T00:49:09;8.40;;;7.57;;
1685;SDS011;840;47.980;7.830;2023-09-12T00:51:38;7.97;;;7.27;;
1685;SDS011;840;47.980;7.830;2023-09-12T00:54:06;8.00;;;7.20;;
1685;SDS011;840;47.980;7.830;2023-09-12T00:56:33;7.90;;;7.10;;
1685;SDS011;840;47.980;7.830;2023-09-12T00:59:00;7.17;;;6.10;;
1685;SDS011;840;47.980;7.830;2023-09-12T01:01:28;6.43;;;5.90;;
1685;SDS011;840;47.980;7.830;2023-09-12T01:03:55;7.53;;;6.83;;
1685;SDS011;840;47.980;7.830;2023-09-12T01:06:24;7.77;;;7.07;;
1685;SDS011;840;47.980;7.830;2023-09-12T01:08:53;10.50;;;8.00;;
1685;SDS011;840;47.980;7.830;2023-09-12T01:11:22;8.07;;;7.23;;
1685;SDS011;840;47.980;7.830;2023-09-12T01:13:50;8.80;;;6.63;;
1685;SDS011;840;47.980;7.830;2023-09-12T01:16:16;8.80;;;8.20;;
1685;SDS011;840;47.980;7.830;2023-09-12T01:18:43;8.30;;;7.50;;
1685;SDS011;840;47.980;7.830;2023-09-12T01:21:17;7.60;;;6.90;;
1685;SDS011;840;47.980;7.830;2023-09-12T01:24:06;7.80;;;7.07;;
1685;SDS011;840;47.980;7.830;2023-09-12T01:26:55;7.93;;;7.23;;
1685;SDS011;840;47.980;7.830;2023-09-12T01:29:32;7.83;;;6.30;;
1685;SDS011;840;47.980;7.830;2023-09-12T01:32:00;8.23;;;7.53;;
1685;SDS011;840;47.980;7.830;2023-09-12T01:34:27;7.10;;;6.47;;
1685;SDS011;840;47.980;7.830;2023-09-12T01:36:54;7.77;;;6.97;;
1685;SDS011;840;47.980;7.830;2023-09-12T01:39:21;7.17;;;6.57;;
1685;SDS011;840;47.980;7.830;2023-09-12T01:41:47;8.77;;;8.03;;
1685;SDS011;840;47.980;7.830;2023-09-12T01:44:15;11.97;;;8.20;;
1685;SDS011;840;47.980;7.830;2023-09-12T01:46:45;8.30;;;7.63;;
1685;SDS011;840;47.980;7.830;2023-09-12T01:49:14;8.83;;;8.03;;
1685;SDS011;840;47.980;7.830;2023-09-12T01:51:44;8.20;;;6.93;;
1685;SDS011;840;47.980;7.830;2023-09-12T01:54:11;7.50;;;6.90;;
1685;SDS011;840;47.980;7.830;2023-09-12T01:56:38;8.77;;;7.53;;
1685;SDS011;840;47.980;7.830;2023-09-12T01:59:06;9.07;;;6.80;;
1685;SDS011;840;47.980;7.830;2023-09-12T02:01:33;7.70;;;7.03;;
1685;SDS011;840;47.980;7.830;2023-09-12T02:04:01;6.43;;;5.93;;
1685;SDS011;840;47.980;7.830;2023-09-12T02:06:33;7.57;;;6.97;;
1685;SDS011;840;47.980;7.830;2023-09-12T02:09:00;7.53;;;6.93;;
1685;SDS011;840;47.980;7.830;2023-09-12T02:11:27;7.00;;;6.40;;
1685;SDS011;840;47.980;7.830;2023-09-12T02:13:54;7.13;;;6.53;;
1685;SDS011;840;47.980;7.830;2023-09-12T02:16:20;7.30;;;6.60;;
1685;SDS011;840;47.980;7.830;2023-09-12T02:18:47;9.90;;;7.07;;
1685;SDS011;840;47.980;7.830;2023-09-12T02:21:15;9.27;;;8.47;;
1685;SDS011;840;47.980;7.830;2023-09-12T02:23:42;9.00;;;8.10;;
1685;SDS011;840;47.980;7.830;2023-09-12T02:26:09;8.60;;;7.80;;
1685;SDS011;840;47.980;7.830;2023-09-12T02:28:35;6.50;;;6.00;;
1685;SDS011;840;47.980;7.830;2023-09-12T02:31:02;10.00;;;7.67;;
1685;SDS011;840;47.980;7.830;2023-09-12T02:33:29;8.37;;;7.70;;
1685;SDS011;840;47.980;7.830;2023-09-12T02:35:56;7.60;;;6.90;;
1685;SDS011;840;47.980;7.830;2023-09-12T02:38:24;10.07;;;7.70;;
1685;SDS011;840;47.980;7.830;2023-09-12T02:40:50;9.07;;;8.27;;
1685;SDS011;840;47.980;7.830;2023-09-12T02:43:17;8.63;;;7.93;;
1685;SDS011;840;47.980;7.830;2023-09-12T02:45:44;8.13;;;7.43;;
1685;SDS011;840;47.980;7.830;2023-09-12T02:48:11;7.30;;;6.70;;
1685;SDS011;840;47.980;7.830;2023-09-12T02:50:37;8.73;;;7.77;;
1685;SDS011;840;47.980;7.830;2023-09-12T02:53:04;7.50;;;6.90;;
1685;SDS011;840;47.980;7.830;2023-09-12T02:55:32;9.97;;;8.37;;
1685;SDS011;840;47.980;7.830;2023-09-12T02:57:59;7.90;;;7.10;;
1685;SDS011;840;47.980;7.830;2023-09-12T03:00:26;8.63;;;7.93;;
1685;SDS011;840;47.980;7.830;2023-09-12T03:02:53;8.17;;;7.37;;
1685;SDS011;840;47.980;7.830;2023-09-12T03:05:20;8.63;;;7.73;;
1685;SDS011;840;47.980;7.830;2023-09-12T03:07:46;7.80;;;7.10;;
1685;SDS011;840;47.980;7.830;2023-09-12T03:10:14;9.37;;;8.50;;
1685;SDS011;840;47.980;7.830;2023-09-12T03:12:42;8.60;;;7.73;;
1685;SDS011;840;47.980;7.830;2023-09-12T03:15:09;8.33;;;7.60;;
1685;SDS011;840;47.980;7.830;2023-09-12T03:17:36;8.17;;;7.37;;
1685;SDS011;840;47.980;7.830;2023-09-12T03:20:03;7.90;;;7.20;;
1685;SDS011;840;47.980;7.830;2023-09-12T03:22:32;7.80;;;7.20;;
1685;SDS011;840;47.980;7.830;2023-09-12T03:25:02;11.87;;;8.57;;
1685;SDS011;840;47.980;7.830;2023-09-12T03:27:30;9.03;;;8.03;;
1685;SDS011;840;47.980;7.830;2023-09-12T03:29:59;9.00;;;8.30;;
1685;SDS011;840;47.980;7.830;2023-09-12T03:32:26;8.40;;;7.70;;
1685;SDS011;840;47.980;7.830;2023-09-12T03:34:53;8.10;;;7.50;;
1685;SDS011;840;47.980;7.830;2023-09-12T03:37:19;8.70;;;8.00;;
1685;SDS011;840;47.980;7.830;2023-09-12T03:39:46;8.80;;;8.10;;
1685;SDS011;840;47.980;7.830;2023-09-12T03:42:13;8.70;;;7.90;;
1685;SDS011;840;47.980;7.830;2023-09-12T03:44:40;9.47;;;8.60;;
1685;SDS011;840;47.980;7.830;2023-09-12T03:47:08;9.30;;;8.40;;
1685;SDS011;840;47.980;7.830;2023-09-12T03:49:35;10.03;;;9.03;;
1685;SDS011;840;47.980;7.830;2023-09-12T03:52:02;8.57;;;7.77;;
1685;SDS011;840;47.980;7.830;2023-09-12T03:54:29;9.30;;;8.37;;
1685;SDS011;840;47.980;7.830;2023-09-12T03:56:56;10.40;;;9.43;;
1685;SDS011;840;47.980;7.830;2023-09-12T03:59:22;9.30;;;8.40;;
1685;SDS011;840;47.980;7.830;2023-09-12T04:01:49;8.63;;;7.93;;
1685;SDS011;840;47.980;7.830;2023-09-12T04:04:17;9.47;;;8.67;;
1685;SDS011;840;47.980;7.830;2023-09-12T04:06:44;8.70;;;7.90;;
1685;SDS011;840;47.980;7.830;2023-09-12T04:09:11;8.40;;;7.70;;
1685;SDS011;840;47.980;7.830;2023-09-12T04:11:38;8.60;;;7.73;;
1685;SDS011;840;47.980;7.830;2023-09-12T04:14:05;10.20;;;7.80;;
1685;SDS011;840;47.980;7.830;2023-09-12T04:16:31;8.97;;;8.17;;
1685;SDS011;840;47.980;7.830;2023-09-12T04:18:58;7.73;;;6.93;;
1685;SDS011;840;47.980;7.830;2023-09-12T04:21:26;8.70;;;7.90;;
1685;SDS011;840;47.980;7.830;2023-09-12T04:23:53;8.97;;;8.07;;
1685;SDS011;840;47.980;7.830;2023-09-12T04:26:20;8.37;;;7.67;;
1685;SDS011;840;47.980;7.830;2023-09-12T04:28:47;8.53;;;7.80;;
1685;SDS011;840;47.980;7.830;2023-09-12T04:31:13;8.70;;;7.90;;
1685;SDS011;840;47.980;7.830;2023-09-12T04:33:40;8.53;;;7.83;;
1685;SDS011;840;47.980;7.830;2023-09-12T04:36:07;9.17;;;8.23;;
1685;SDS011;840;47.980;7.830;2023-09-12T04:38:35;9.50;;;8.70;;
1685;SDS011;840;47.980;7.830;2023-09-12T04:41:02;7.77;;;7.07;;
1685;SDS011;840;47.980;7.830;2023-09-12T04:43:31;9.20;;;8.40;;
1685;SDS011;840;47.980;7.830;2023-09-12T04:45:58;9.33;;;8.43;;
1685;SDS011;840;47.980;7.830;2023-09-12T04:48:25;10.20;;;9.20;;
1685;SDS011;840;47.980;7.830;2023-09-12T04:50:53;9.80;;;7.73;;
1685;SDS011;840;47.980;7.830;2023-09-12T04:53:21;10.40;;;9.50;;
1685;SDS011;840;47.980;7.830;2023-09-12T04:55:49;11.10;;;9.77;;
1685;SDS011;840;47.980;7.830;2023-09-12T04:58:18;10.17;;;8.97;;
1685;SDS011;840;47.980;7.830;2023-09-12T05:00:45;9.83;;;9.00;;
1685;SDS011;840;47.980;7.830;2023-09-12T05:03:11;9.77;;;8.83;;
1685;SDS011;840;47.980;7.830;2023-09-12T05:05:38;8.70;;;7.87;;
1685;SDS011;840;47.980;7.830;2023-09-12T05:08:05;14.83;;;9.27;;
1685;SDS011;840;47.980;7.830;2023-09-12T05:10:32;10.00;;;9.10;;
1685;SDS011;840;47.980;7.830;2023-09-12T05:13:00;9.97;;;8.97;;
1685;SDS011;840;47.980;7.830;2023-09-12T05:15:26;9.37;;;8.60;;
1685;SDS011;840;47.980;7.830;2023-09-12T05:17:53;10.07;;;9.20;;
1685;SDS011;840;47.980;7.830;2023-09-12T05:20:20;9.50;;;8.70;;
1685;SDS011;840;47.980;7.830;2023-09-12T05:22:47;9.20;;;7.83;;
1685;SDS011;840;47.980;7.830;2023-09-12T05:25:13;10.03;;;9.20;;
1685;SDS011;840;47.980;7.830;2023-09-12T05:27:40;8.60;;;7.80;;
1685;SDS011;840;47.980;7.830;2023-09-12T05:30:09;9.57;;;8.67;;
1685;SDS011;840;47.980;7.830;2023-09-12T05:32:36;7.80;;;7.20;;
1685;SDS011;840;47.980;7.830;2023-09-12T05:35:03;9.00;;;8.30;;
1685;SDS011;840;47.980;7.830;2023-09-12T05:37:30;8.90;;;8.07;;
1685;SDS011;840;47.980;7.830;2023-09-12T05:39:56;9.53;;;8.63;;
1685;SDS011;840;47.980;7.830;2023-09-12T05:42:23;10.47;;;8.07;;
1685;SDS011;840;47.980;7.830;2023-09-12T05:44:50;9.60;;;8.60;;
1685;SDS011;840;47.980;7.830;2023-09-12T05:47:19;9.03;;;8.10;;
1685;SDS011;840;47.980;7.830;2023-09-12T05:49:47;9.37;;;8.57;;
1685;SDS011;840;47.980;7.830;2023-09-12T05:52:13;9.53;;;8.63;;
1685;SDS011;840;47.980;7.830;2023-09-12T05:54:40;8.00;;;7.30;;
1685;SDS011;840;47.980;7.830;2023-09-12T05:57:07;9.53;;;8.63;;
1685;SDS011;840;47.980;7.830;2023-09-12T05:59:36;8.80;;;7.40;;
1685;SDS011;840;47.980;7.830;2023-09-12T06:02:03;9.30;;;8.40;;
1685;SDS011;840;47.980;7.830;2023-09-12T06:04:32;8.67;;;7.73;;
1685;SDS011;840;47.980;7.830;2023-09-12T06:06:59;8.60;;;7.90;;
1685;SDS011;840;47.980;7.830;2023-09-12T06:09:27;9.60;;;8.73;;
1685;SDS011;840;47.980;7.830;2023-09-12T06:11:54;8.77;;;8.03;;
1685;SDS011;840;47.980;7.830;2023-09-12T06:14:21;8.07;;;7.27;;
1685;SDS011;840;47.980;7.830;2023-09-12T06:16:47;8.97;;;8.07;;
1685;SDS011;840;47.980;7.830;2023-09-12T06:19:14;9.17;;;8.37;;
1685;SDS011;840;47.980;7.830;2023-09-12T06:21:42;9.27;;;8.47;;
1685;SDS011;840;47.980;7.830;2023-09-12T06:24:09;8.37;;;7.57;;
1685;SDS011;840;47.980;7.830;2023-09-12T06:26:38;8.90;;;8.00;;
1685;SDS011;840;47.980;7.830;2023-09-12T06:29:05;7.73;;;7.13;;
1685;SDS011;840;47.980;7.830;2023-09-12T06:31:32;9.47;;;8.47;;
1685;SDS011;840;47.980;7.830;2023-09-12T06:34:00;9.13;;;8.20;;
1685;SDS011;840;47.980;7.830;2023-09-12T06:36:27;9.47;;;8.57;;
1685;SDS011;840;47.980;7.830;2023-09-12T06:38:56;11.13;;;10.03;;
1685;SDS011;840;47.980;7.830;2023-09-12T06:41:23;9.13;;;8.33;;
1685;SDS011;840;47.980;7.830;2023-09-12T06:43:49;10.73;;;9.13;;
1685;SDS011;840;47.980;7.830;2023-09-12T06:46:16;9.40;;;8.60;;
1685;SDS011;840;47.980;7.830;2023-09-12T06:48:43;9.43;;;7.97;;
1685;SDS011;840;47.980;7.830;2023-09-12T06:51:10;10.43;;;8.20;;
1685;SDS011;840;47.980;7.830;2023-09-12T06:53:37;8.27;;;7.60;;
1685;SDS011;840;47.980;7.830;2023-09-12T06:56:06;10.57;;;9.67;;
1685;SDS011;840;47.980;7.830;2023-09-12T06:58:33;9.27;;;8.33;;
1685;SDS011;840;47.980;7.830;2023-09-12T07:01:03;8.40;;;7.80;;
1685;SDS011;840;47.980;7.830;2023-09-12T07:03:30;9.40;;;8.60;;
1685;SDS011;840;47.980;7.830;2023-09-12T07:05:58;9.63;;;8.20;;
1685;SDS011;840;47.980;7.830;2023-09-12T07:08:25;8.50;;;7.83;;
1685;SDS011;840;47.980;7.830;2023-09-12T07:10:52;9.10;;;8.30;;
1685;SDS011;840;47.980;7.830;2023-09-12T07:13:21;8.23;;;7.53;;
1685;SDS011;840;47.980;7.830;2023-09-12T07:15:48;8.40;;;7.60;;
1685;SDS011;840;47.980;7.830;2023-09-12T07:18:15;8.77;;;8.07;;
1685;SDS011;840;47.980;7.830;2023-09-12T07:20:43;9.03;;;8.20;;
1685;SDS011;840;47.980;7.830;2023-09-12T07:23:10;8.33;;;7.53;;
1685;SDS011;840;47.980;7.830;2023-09-12T07:25:37;7.83;;;7.10;;
1685;SDS011;840;47.980;7.830;2023-09-12T07:28:05;10.53;;;7.83;;
1685;SDS011;840;47.980;7.830;2023-09-12T07:30:36;8.00;;;7.10;;
1685;SDS011;840;47.980;7.830;2023-09-12T07:33:04;9.37;;;7.50;;
1685;SDS011;840;47.980;7.830;2023-09-12T07:35:31;9.53;;;8.33;;
1685;SDS011;840;47.980;7.830;2023-09-12T07:37:57;8.90;;;8.00;;
1685;SDS011;840;47.980;7.830;2023-09-12T07:40:25;8.77;;;7.97;;
1685;SDS011;840;47.980;7.830;2023-09-12T07:42:52;8.50;;;7.80;;
1685;SDS011;840;47.980;7.830;2023-09-12T07:45:20;8.43;;;7.80;;
1685;SDS011;840;47.980;7.830;2023-09-12T07:47:48;8.83;;;8.00;;
1685;SDS011;840;47.980;7.830;2023-09-12T07:50:15;9.23;;;8.03;;
1685;SDS011;840;47.980;7.830;2023-09-12T07:52:42;9.43;;;8.63;;
1685;SDS011;840;47.980;7.830;2023-09-12T07:55:09;7.43;;;6.80;;
1685;SDS011;840;47.980;7.830;2023-09-12T07:57:36;7.90;;;7.23;;
1685;SDS011;840;47.980;7.830;2023-09-12T08:00:04;8.80;;;8.00;;
1685;SDS011;840;47.980;7.830;2023-09-12T08:02:35;8.10;;;7.40;;
1685;SDS011;840;47.980;7.830;2023-09-12T08:05:04;12.47;;;8.60;;
1685;SDS011;840;47.980;7.830;2023-09-12T08:07:32;10.23;;;9.27;;
1685;SDS011;840;47.980;7.830;2023-09-12T08:09:58;10.70;;;7.90;;
1685;SDS011;840;47.980;7.830;2023-09-12T08:12:26;7.70;;;7.00;;
1685;SDS011;840;47.980;7.830;2023-09-12T08:14:53;10.23;;;7.57;;
1685;SDS011;840;47.980;7.830;2023-09-12T08:17:21;8.70;;;8.00;;
1685;SDS011;840;47.980;7.830;2023-09-12T08:19:49;7.93;;;7.33;;
1685;SDS011;840;47.980;7.830;2023-09-12T08:22:17;7.97;;;7.37;;
1685;SDS011;840;47.980;7.830;2023-09-12T08:24:44;9.50;;;8.43;;
1685;SDS011;840;47.980;7.830;2023-09-12T08:27:10;8.27;;;7.37;;
1685;SDS011;840;47.980;7.830;2023-09-12T08:29:37;8.03;;;7.10;;
1685;SDS011;840;47.980;7.830;2023-09-12T08:32:04;14.93;;;13.73;;
1685;SDS011;840;47.980;7.830;2023-09-12T08:34:31;12.20;;;11.17;;
1685;SDS011;840;47.980;7.830;2023-09-12T08:36:58;9.53;;;8.10;;
1685;SDS011;840;47.980;7.830;2023-09-12T08:39:26;8.80;;;8.10;;
1685;SDS011;840;47.980;7.830;2023-09-12T08:41:54;10.60;;;8.37;;
1685;SDS011;840;47.980;7.830;2023-09-12T08:44:21;9.20;;;8.30;;
1685;SDS011;840;47.980;7.830;2023-09-12T08:46:48;9.00;;;8.20;;
1685;SDS011;840;47.980;7.830;2023-09-12T08:49:15;8.73;;;7.90;;
1685;SDS011;840;47.980;7.830;2023-09-12T08:51:42;7.93;;;7.17;;
1685;SDS011;840;47.980;7.830;2023-09-12T08:54:09;9.27;;;8.07;;
1685;SDS011;840;47.980;7.830;2023-09-12T08:56:39;8.40;;;7.60;;
1685;SDS011;840;47.980;7.830;2023-09-12T08:59:07;8.20;;;7.40;;
1685;SDS011;840;47.980;7.830;2023-09-12T09:01:35;8.33;;;7.50;;
1685;SDS011;840;47.980;7.830;2023-09-12T09:04:03;7.87;;;7.10;;
1685;SDS011;840;47.980;7.830;2023-09-12T09:06:31;8.63;;;7.30;;
1685;SDS011;840;47.980;7.830;2023-09-12T09:09:02;8.07;;;7.07;;
1685;SDS011;840;47.980;7.830;2023-09-12T09:11:31;8.63;;;7.90;;
1685;SDS011;840;47.980;7.830;2023-09-12T09:14:01;10.13;;;7.40;;
1685;SDS011;840;47.980;7.830;2023-09-12T09:16:28;7.57;;;6.83;;
1685;SDS011;840;47.980;7.830;2023-09-12T09:18:56;8.20;;;7.40;;
1685;SDS011;840;47.980;7.830;2023-09-12T09:21:24;7.17;;;6.57;;
1685;SDS011;840;47.980;7.830;2023-09-12T09:23:53;7.97;;;7.20;;
1685;SDS011;840;47.980;7.830;2023-09-12T09:26:20;7.57;;;6.87;;
1685;SDS011;840;47.980;7.830;2023-09-12T09:29:02;9.53;;;6.30;;
1685;SDS011;840;47.980;7.830;2023-09-12T09:31:30;6.60;;;6.10;;
1685;SDS011;840;47.980;7.830;2023-09-12T09:33:58;7.73;;;6.50;;
1685;SDS011;840;47.980;7.830;2023-09-12T09:36:26;5.90;;;5.37;;
1685;SDS011;840;47.980;7.830;2023-09-12T09:38:53;6.73;;;6.13;;
1685;SDS011;840;47.980;7.830;2023-09-12T09:41:20;5.60;;;4.80;;
1685;SDS011;840;47.980;7.830;2023-09-12T09:43:48;6.60;;;5.63;;
1685;SDS011;840;47.980;7.830;2023-09-12T09:46:17;5.80;;;5.30;;
1685;SDS011;840;47.980;7.830;2023-09-12T09:48:48;5.87;;;5.27;;
1685;SDS011;840;47.980;7.830;2023-09-12T09:51:24;5.97;;;5.37;;
1685;SDS011;840;47.980;7.830;2023-09-12T09:53:51;6.33;;;5.37;;
1685;SDS011;840;47.980;7.830;2023-09-12T09:56:22;6.10;;;5.50;;
1685;SDS011;840;47.980;7.830;2023-09-12T09:58:50;6.57;;;5.30;;
1685;SDS011;840;47.980;7.830;2023-09-12T10:01:20;7.20;;;5.50;;
1685;SDS011;840;47.980;7.830;2023-09-12T10:03:48;6.50;;;5.40;;
1685;SDS011;840;47.980;7.830;2023-09-12T10:06:16;5.10;;;4.70;;
1685;SDS011;840;47.980;7.830;2023-09-12T10:08:44;10.03;;;5.77;;
1685;SDS011;840;47.980;7.830;2023-09-12T10:11:15;5.90;;;5.40;;
1685;SDS011;840;47.980;7.830;2023-09-12T10:13:44;6.33;;;5.77;;
1685;SDS011;840;47.980;7.830;2023-09-12T10:16:15;7.20;;;6.50;;
1685;SDS011;840;47.980;7.830;2023-09-12T10:18:46;6.17;;;5.60;;
1685;SDS011;840;47.980;7.830;2023-09-12T10:21:21;5.90;;;5.40;;
1685;SDS011;840;47.980;7.830;2023-09-12T10:23:53;5.47;;;5.07;;
1685;SDS011;840;47.980;7.830;2023-09-12T10:26:22;6.03;;;5.40;;
1685;SDS011;840;47.980;7.830;2023-09-12T10:28:50;7.90;;;5.30;;
1685;SDS011;840;47.980;7.830;2023-09-12T10:31:17;8.43;;;5.43;;
1685;SDS011;840;47.980;7.830;2023-09-12T10:33:46;5.10;;;4.60;;
1685;SDS011;840;47.980;7.830;2023-09-12T10:36:15;5.87;;;5.37;;
1685;SDS011;840;47.980;7.830;2023-09-12T10:38:45;4.63;;;4.33;;
1685;SDS011;840;47.980;7.830;2023-09-12T10:41:14;5.20;;;4.80;;
1685;SDS011;840;47.980;7.830;2023-09-12T10:43:42;5.27;;;4.87;;
1685;SDS011;840;47.980;7.830;2023-09-12T10:46:11;5.77;;;5.17;;
1685;SDS011;840;47.980;7.830;2023-09-12T10:48:40;5.13;;;4.63;;
1685;SDS011;840;47.980;7.830;2023-09-12T10:51:09;7.63;;;5.00;;
1685;SDS011;840;47.980;7.830;2023-09-12T10:53:37;10.80;;;4.63;;
1685;SDS011;840;47.980;7.830;2023-09-12T10:56:14;6.10;;;5.50;;
1685;SDS011;840;47.980;7.830;2023-09-12T11:01:38;4.77;;;4.40;;
1685;SDS011;840;47.980;7.830;2023-09-12T11:06:59;4.63;;;4.23;;
1685;SDS011;840;47.980;7.830;2023-09-12T11:09:27;5.50;;;5.00;;
1685;SDS011;840;47.980;7.830;2023-09-12T11:11:58;5.43;;;4.93;;
1685;SDS011;840;47.980;7.830;2023-09-12T11:14:28;5.80;;;5.30;;
1685;SDS011;840;47.980;7.830;2023-09-12T11:19:49;7.83;;;5.90;;
1685;SDS011;840;47.980;7.830;2023-09-12T11:22:26;5.83;;;5.27;;
1685;SDS011;840;47.980;7.830;2023-09-12T11:24:54;6.03;;;5.00;;
1685;SDS011;840;47.980;7.830;2023-09-12T11:27:22;5.37;;;4.97;;
1685;SDS011;840;47.980;7.830;2023-09-12T11:29:50;5.37;;;4.90;;
1685;SDS011;840;47.980;7.830;2023-09-12T11:32:26;7.43;;;5.90;;
1685;SDS011;840;47.980;7.830;2023-09-12T11:34:56;6.30;;;5.43;;
1685;SDS011;840;47.980;7.830;2023-09-12T11:37:26;6.10;;;5.60;;
1685;SDS011;840;47.980;7.830;2023-09-12T11:39:54;6.57;;;5.70;;
1685;SDS011;840;47.980;7.830;2023-09-12T11:42:22;6.40;;;5.83;;
1685;SDS011;840;47.980;7.830;2023-09-12T11:44:50;6.40;;;5.63;;
1685;SDS011;840;47.980;7.830;2023-09-12T11:47:18;5.17;;;4.77;;
1685;SDS011;840;47.980;7.830;2023-09-12T11:49:45;5.73;;;5.23;;
1685;SDS011;840;47.980;7.830;2023-09-12T11:52:12;8.30;;;6.00;;
1685;SDS011;840;47.980;7.830;2023-09-12T11:54:43;5.80;;;5.30;;
1685;SDS011;840;47.980;7.830;2023-09-12T11:57:11;5.53;;;5.00;;
1685;SDS011;840;47.980;7.830;2023-09-12T11:59:40;6.67;;;6.07;;
1685;SDS011;840;47.980;7.830;2023-09-12T12:02:10;5.50;;;5.00;;
1685;SDS011;840;47.980;7.830;2023-09-12T12:04:37;5.90;;;5.40;;
1685;SDS011;840;47.980;7.830;2023-09-12T12:07:04;6.03;;;5.43;;
1685;SDS011;840;47.980;7.830;2023-09-12T12:09:31;5.40;;;4.93;;
1685;SDS011;840;47.980;7.830;2023-09-12T12:12:04;6.30;;;5.80;;
1685;SDS011;840;47.980;7.830;2023-09-12T12:14:35;6.70;;;5.63;;
1685;SDS011;840;47.980;7.830;2023-09-12T12:17:05;5.97;;;5.47;;
1685;SDS011;840;47.980;7.830;2023-09-12T12:19:33;6.00;;;5.60;;
1685;SDS011;840;47.980;7.830;2023-09-12T12:22:01;6.00;;;5.50;;
1685;SDS011;840;47.980;7.830;2023-09-12T12:24:35;10.43;;;5.93;;
1685;SDS011;840;47.980;7.830;2023-09-12T12:27:04;6.00;;;5.50;;
1685;SDS011;840;47.980;7.830;2023-09-12T12:29:32;5.27;;;4.80;;
1685;SDS011;840;47.980;7.830;2023-09-12T12:31:59;6.30;;;5.50;;
1685;SDS011;840;47.980;7.830;2023-09-12T12:34:26;6.23;;;5.63;;
1685;SDS011;840;47.980;7.830;2023-09-12T12:36:53;6.20;;;5.70;;
1685;SDS011;840;47.980;7.830;2023-09-12T12:39:20;6.37;;;5.23;;
1685;SDS011;840;47.980;7.830;2023-09-12T12:41:48;6.37;;;5.87;;
1685;SDS011;840;47.980;7.830;2023-09-12T12:44:18;6.60;;;6.10;;
1685;SDS011;840;47.980;7.830;2023-09-12T12:46:48;8.93;;;5.37;;
1685;SDS011;840;47.980;7.830;2023-09-12T12:49:15;5.43;;;5.03;;
1685;SDS011;840;47.980;7.830;2023-09-12T12:51:42;5.43;;;4.93;;
1685;SDS011;840;47.980;7.830;2023-09-12T12:54:09;6.43;;;6.03;;
1685;SDS011;840;47.980;7.830;2023-09-12T12:56:36;5.40;;;4.93;;
1685;SDS011;840;47.980;7.830;2023-09-12T12:59:04;6.30;;;5.47;;
1685;SDS011;840;47.980;7.830;2023-09-12T13:01:35;5.97;;;5.50;;
1685;SDS011;840;47.980;7.830;2023-09-12T13:04:04;5.80;;;5.30;;
1685;SDS011;840;47.980;7.830;2023-09-12T13:06:32;5.93;;;5.50;;
1685;SDS011;840;47.980;7.830;2023-09-12T13:09:01;6.00;;;5.40;;
1685;SDS011;840;47.980;7.830;2023-09-12T13:11:30;8.43;;;6.00;;
1685;SDS011;840;47.980;7.830;2023-09-12T13:13:59;22.03;;;20.23;;
1685;SDS011;840;47.980;7.830;2023-09-12T13:16:26;6.73;;;6.13;;
1685;SDS011;840;47.980;7.830;2023-09-12T13:18:55;6.70;;;6.10;;
1685;SDS011;840;47.980;7.830;2023-09-12T13:21:22;7.77;;;7.00;;
1685;SDS011;840;47.980;7.830;2023-09-12T13:23:48;6.00;;;5.50;;
1685;SDS011;840;47.980;7.830;2023-09-12T13:26:15;5.80;;;5.40;;
1685;SDS011;840;47.980;7.830;2023-09-12T13:28:42;7.03;;;6.03;;
1685;SDS011;840;47.980;7.830;2023-09-12T13:31:09;5.73;;;5.33;;
1685;SDS011;840;47.980;7.830;2023-09-12T13:33:37;5.80;;;5.27;;
1685;SDS011;840;47.980;7.830;2023-09-12T13:36:05;6.23;;;5.73;;
1685;SDS011;840;47.980;7.830;2023-09-12T13:38:32;5.17;;;4.77;;
1685;SDS011;840;47.980;7.830;2023-09-12T13:40:59;5.30;;;4.40;;
1685;SDS011;840;47.980;7.830;2023-09-12T13:43:25;4.03;;;3.70;;
1685;SDS011;840;47.980;7.830;2023-09-12T13:45:53;3.60;;;3.30;;
1685;SDS011;840;47.980;7.830;2023-09-12T13:48:20;3.83;;;3.37;;
1685;SDS011;840;47.980;7.830;2023-09-12T13:50:46;3.13;;;2.93;;
1685;SDS011;840;47.980;7.830;2023-09-12T13:53:14;3.90;;;3.60;;
1685;SDS011;840;47.980;7.830;2023-09-12T13:55:41;3.20;;;3.00;;
1685;SDS011;840;47.980;7.830;2023-09-12T13:58:08;4.00;;;3.30;;
1685;SDS011;840;47.980;7.830;2023-09-12T14:00:34;4.17;;;2.70;;
1685;SDS011;840;47.980;7.830;2023-09-12T14:03:01;3.90;;;3.60;;
1685;SDS011;840;47.980;7.830;2023-09-12T14:05:29;4.03;;;3.53;;
1685;SDS011;840;47.980;7.830;2023-09-12T14:07:55;5.30;;;3.73;;
1685;SDS011;840;47.980;7.830;2023-09-12T14:10:24;3.80;;;3.50;;
1685;SDS011;840;47.980;7.830;2023-09-12T14:12:50;4.20;;;3.10;;
1685;SDS011;840;47.980;7.830;2023-09-12T14:15:17;4.60;;;3.33;;
1685;SDS011;840;47.980;7.830;2023-09-12T14:17:44;4.07;;;3.60;;
1685;SDS011;840;47.980;7.830;2023-09-12T14:20:11;4.27;;;3.67;;
1685;SDS011;840;47.980;7.830;2023-09-12T14:22:40;3.53;;;3.23;;
1685;SDS011;840;47.980;7.830;2023-09-12T14:25:08;3.80;;;3.50;;
1685;SDS011;840;47.980;7.830;2023-09-12T14:27:40;3.97;;;3.43;;
1685;SDS011;840;47.980;7.830;2023-09-12T14:30:08;4.30;;;3.53;;
1685;SDS011;840;47.980;7.830;2023-09-12T14:32:36;4.80;;;4.43;;
1685;SDS011;840;47.980;7.830;2023-09-12T14:35:03;3.90;;;3.60;;
1685;SDS011;840;47.980;7.830;2023-09-12T14:37:30;5.60;;;3.63;;
1685;SDS011;840;47.980;7.830;2023-09-12T14:39:57;4.50;;;4.20;;
1685;SDS011;840;47.980;7.830;2023-09-12T14:42:24;4.80;;;4.40;;
1685;SDS011;840;47.980;7.830;2023-09-12T14:44:52;4.40;;;4.10;;
1685;SDS011;840;47.980;7.830;2023-09-12T14:47:19;4.83;;;3.90;;
1685;SDS011;840;47.980;7.830;2023-09-12T14:49:45;3.87;;;3.57;;
1685;SDS011;840;47.980;7.830;2023-09-12T14:52:12;4.10;;;3.70;;
1685;SDS011;840;47.980;7.830;2023-09-12T14:54:39;5.53;;;3.97;;
1685;SDS011;840;47.980;7.830;2023-09-12T14:57:06;4.10;;;3.33;;
1685;SDS011;840;47.980;7.830;2023-09-12T14:59:32;8.63;;;4.70;;
1685;SDS011;840;47.980;7.830;2023-09-12T15:02:00;4.40;;;4.10;;
1685;SDS011;840;47.980;7.830;2023-09-12T15:04:27;4.40;;;4.10;;
1685;SDS011;840;47.980;7.830;2023-09-12T15:06:54;4.73;;;4.17;;
1685;SDS011;840;47.980;7.830;2023-09-12T15:09:21;5.20;;;4.30;;
1685;SDS011;840;47.980;7.830;2023-09-12T15:11:47;4.97;;;4.47;;
1685;SDS011;840;47.980;7.830;2023-09-12T15:14:14;5.10;;;4.70;;
1685;SDS011;840;47.980;7.830;2023-09-12T15:16:42;7.70;;;4.40;;
1685;SDS011;840;47.980;7.830;2023-09-12T15:19:10;6.50;;;4.73;;
1685;SDS011;840;47.980;7.830;2023-09-12T15:21:37;7.30;;;5.47;;
1685;SDS011;840;47.980;7.830;2023-09-12T15:24:04;5.20;;;4.80;;
1685;SDS011;840;47.980;7.830;2023-09-12T15:26:31;5.73;;;4.43;;
1685;SDS011;840;47.980;7.830;2023-09-12T15:28:58;5.53;;;5.13;;
1685;SDS011;840;47.980;7.830;2023-09-12T15:31:26;5.63;;;5.13;;
1685;SDS011;840;47.980;7.830;2023-09-12T15:33:53;4.70;;;4.40;;
1685;SDS011;840;47.980;7.830;2023-09-12T15:36:22;7.50;;;4.80;;
1685;SDS011;840;47.980;7.830;2023-09-12T15:38:49;7.13;;;5.70;;
1685;SDS011;840;47.980;7.830;2023-09-12T15:41:16;5.30;;;4.87;;